Latest Weather Observations for Hindmarsh Island

IDS60901

Issued at 5:21 pm CDT Saturday 25 February 2017 (issued every 10 minutes, with the page automatically refreshed every 10 minutes)

About weather observations | Map of Adelaide area stations | Latest observations for Adelaide area | Other Formats
Station Details ID: 023894 Name: HINDMARSH ISLAND AWS Lat: -35.52 Lon: 138.82 Height: 11.0 m
Data from the previous 72 hours. | See also: Recent months at Hindmarsh Island
Date/Time
CDT
Temp
°C
App
Temp
°C
Dew
Point
°C
Rel
Hum
%
Delta-T
°C
Wind Press
QNH
hPa
Press
MSL
hPa
Rain since
9am
mm
Dir  Spd
km/h
Gust
km/h
Spd
kts
Gust
kts
25/05:00pm 19.4 13.4 12.2 63 4.0 S 35 41 19 22 1022.9 1022.9 0.0
25/04:30pm 19.6 13.8 11.4 59 4.5 S 33 41 18 22 1023.1 1023.1 0.0
25/04:00pm 19.4 13.4 10.9 58 4.6 S 33 41 18 22 1023.3 1023.3 0.0
25/03:30pm 19.5 13.2 9.7 53 5.2 S 33 39 18 21 1023.6 1023.6 0.0
25/03:00pm 19.7 13.4 9.6 52 5.3 S 33 39 18 21 1024.0 1024.0 0.0
25/02:30pm 19.6 14.0 10.3 55 5.0 SSE 30 35 16 19 1024.4 1024.4 0.0
25/02:00pm 19.4 15.1 10.7 57 4.7 SSE 24 32 13 17 1024.8 1024.8 0.0
25/01:30pm 19.0 14.3 10.8 59 4.4 SSE 26 32 14 17 1025.0 1025.0 0.0
25/01:00pm 18.3 13.5 10.4 60 4.2 SE 26 33 14 18 1025.1 1025.1 0.0
25/12:30pm 19.9 15.7 11.1 57 4.8 SE 24 33 13 18 1025.3 1025.3 0.0
25/12:00pm 19.2 13.7 10.5 57 4.7 SE 30 37 16 20 1025.7 1025.7 0.0
25/11:30am 18.1 13.4 10.7 62 4.0 SE 26 32 14 17 1026.1 1026.1 0.0
25/11:00am 17.6 12.3 10.0 61 4.0 ESE 28 37 15 20 1026.2 1026.2 0.0
25/10:30am 18.2 13.6 9.8 58 4.4 ESE 24 30 13 16 1026.2 1026.2 0.0
25/10:00am 17.3 13.6 10.0 62 3.9 ESE 20 28 11 15 1026.6 1026.6 0.0
25/09:30am 17.1 12.6 10.2 64 3.6 E 24 30 13 16 1026.4 1026.4 0.0
25/09:00am 16.6 12.0 9.8 64 3.5 ESE 24 33 13 18 1026.3 1026.3 0.0
25/08:30am 15.8 12.2 10.6 71 2.7 E 20 26 11 14 1026.2 1026.2 0.0
25/08:00am 16.2 13.3 10.9 71 2.8 E 17 24 9 13 1026.1 1026.1 0.0
25/07:30am 14.5 11.8 10.5 77 2.1 ENE 15 20 8 11 1025.8 1025.8 0.0
25/07:00am 13.8 11.4 10.0 78 2.0 ENE 13 17 7 9 1025.8 1025.8 0.0
25/06:30am 14.2 11.8 10.0 76 2.2 E 13 15 7 8 1025.7 1025.7 0.0
25/06:00am 14.9 12.2 10.5 75 2.3 ENE 15 19 8 10 1025.5 1025.5 0.0
25/05:30am 15.1 12.8 10.5 74 2.4 E 13 17 7 9 1025.5 1025.5 0.0
25/05:00am 15.6 13.0 10.6 72 2.6 E 15 20 8 11 1025.4 1025.4 0.0
25/04:30am 16.7 11.3 10.8 68 3.1 SE 30 37 16 20 1025.0 1025.0 0.0
25/04:00am 16.8 11.5 11.1 69 3.1 SE 30 33 16 18 1024.9 1024.9 0.0
25/03:30am 17.0 11.8 11.7 71 2.9 SE 30 35 16 19 1025.0 1025.0 0.0
25/03:00am 16.9 12.3 11.2 69 3.1 SE 26 33 14 18 1025.0 1025.0 0.0
25/02:30am 16.9 11.6 11.2 69 3.1 SE 30 35 16 19 1025.3 1025.3 0.0
25/02:00am 16.9 11.6 11.2 69 3.1 SSE 30 35 16 19 1025.5 1025.5 0.0
25/01:30am 16.9 11.2 11.0 68 3.2 SSE 32 39 17 21 1025.6 1025.6 0.0
25/01:00am 16.9 11.0 11.2 69 3.1 SSE 33 41 18 22 1025.9 1025.9 0.0
25/12:30am 16.9 11.0 11.0 68 3.2 SSE 33 41 18 22 1025.9 1025.9 0.0
25/12:00am 16.8 10.9 11.1 69 3.0 SSE 33 41 18 22 1025.9 1025.9 0.0
 
Date/Time
CDT
Temp
°C
App
Temp
°C
Dew
Point
°C
Rel
Hum
%
Delta-T
°C
Wind Press
QNH
hPa
Press
MSL
hPa
Rain since
9am
mm
Dir  Spd
km/h
Gust
km/h
Spd
kts
Gust
kts
24/11:30pm 16.9 11.0 11.0 68 3.2 SSE 33 41 18 22 1026.0 1026.0 0.0
24/11:00pm 17.2 11.5 11.7 70 3.0 SSE 33 39 18 21 1026.2 1026.2 0.0
24/10:30pm 17.2 10.6 11.2 68 3.2 SSE 37 43 20 23 1026.1 1026.1 0.0
24/10:00pm 17.2 10.8 10.6 65 3.5 SSE 35 44 19 24 1026.3 1026.3 0.0
24/09:30pm 17.4 11.1 11.0 66 3.4 SSE 35 43 19 23 1026.3 1026.3 0.0
24/09:00pm 17.5 10.4 10.9 65 3.5 SSE 39 46 21 25 1026.1 1026.1 0.0
24/08:30pm 17.4 10.8 11.2 67 3.3 S 37 43 20 23 1026.1 1026.1 0.0
24/08:00pm 17.5 10.5 11.3 67 3.4 S 39 44 21 24 1025.8 1025.8 0.0
24/07:30pm 17.7 10.9 10.8 64 3.7 S 37 43 20 23 1025.7 1025.7 0.0
24/07:00pm 17.9 11.3 10.0 60 4.2 S 35 43 19 23 1025.6 1025.6 0.0
24/06:30pm 18.6 12.1 10.4 59 4.4 S 35 44 19 24 1025.5 1025.5 0.0
24/06:00pm 18.5 12.3 10.1 58 4.5 S 33 39 18 21 1025.6 1025.6 0.0
24/05:30pm 18.2 11.8 9.3 56 4.6 S 33 44 18 24 1025.7 1025.7 0.0
24/05:00pm 18.8 12.5 9.8 56 4.8 S 33 41 18 22 1025.6 1025.6 0.0
24/04:30pm 18.8 12.7 9.8 56 4.8 S 32 41 17 22 1025.5 1025.5 0.0
24/04:00pm 19.3 13.5 10.8 58 4.6 S 32 39 17 21 1025.8 1025.8 0.0
24/03:30pm 18.6 12.7 10.4 59 4.4 S 32 35 17 19 1025.9 1025.9 0.0
24/03:00pm 19.1 14.1 10.9 59 4.4 S 28 33 15 18 1026.0 1026.0 0.0
24/02:30pm 19.2 14.0 10.2 56 4.8 S 28 32 15 17 1026.3 1026.3 0.0
24/02:00pm 19.7 14.5 10.4 55 5.0 SSE 28 35 15 19 1026.3 1026.3 0.0
24/01:30pm 19.5 14.6 10.0 54 5.1 SSE 26 32 14 17 1026.4 1026.4 0.0
24/01:00pm 19.8 15.3 10.2 54 5.2 SSE 24 32 13 17 1026.7 1026.7 0.0
24/12:30pm 19.2 15.0 9.7 54 5.0 SSE 22 30 12 16 1026.8 1026.8 0.0
24/12:00pm 19.2 14.2 9.4 53 5.1 SSE 26 33 14 18 1027.1 1027.1 0.0
24/11:30am 18.9 14.6 9.4 54 5.0 SSE 22 28 12 15 1027.1 1027.1 0.0
24/11:00am 18.7 15.1 9.8 56 4.7 SSE 19 26 10 14 1027.3 1027.3 0.0
24/10:30am 18.7 14.6 10.0 57 4.6 SSE 22 30 12 16 1027.2 1027.2 0.0
24/10:00am 18.1 13.0 9.2 56 4.7 SSE 26 32 14 17 1027.0 1027.0 0.0
24/09:30am 17.9 14.1 9.8 59 4.3 SSE 20 30 11 16 1026.8 1026.8 0.0
24/09:00am 17.5 12.8 9.4 59 4.2 SSE 24 32 13 17 1026.7 1026.7 0.8
24/08:30am 17.3 13.6 10.0 62 3.8 SSE 20 28 11 15 1026.3 1026.3 0.8
24/08:00am 17.1 13.4 9.5 61 4.0 SSE 19 24 10 13 1026.1 1026.1 0.8
24/07:30am 16.9 12.1 8.8 59 4.1 SSE 24 30 13 16 1025.8 1025.8 0.8
24/07:00am 16.7 12.0 9.1 61 3.9 S 24 28 13 15 1025.4 1025.4 0.8
24/06:30am 16.9 12.3 9.8 63 3.7 SSE 24 28 13 15 1025.1 1025.1 0.8
24/06:00am 16.9 12.7 9.8 63 3.7 S 22 30 12 16 1024.7 1024.7 0.8
24/05:30am 16.9 13.3 9.8 63 3.7 SSE 19 22 10 12 1024.5 1024.5 0.8
24/05:00am 16.6 12.3 9.5 63 3.7 S 22 28 12 15 1024.4 1024.4 0.8
24/04:30am 16.4 12.2 9.6 64 3.5 S 22 28 12 15 1024.2 1024.2 0.8
24/04:00am 16.5 12.2 9.4 63 3.7 S 22 28 12 15 1024.2 1024.2 0.8
24/03:30am 16.7 12.2 9.9 64 3.6 S 24 30 13 16 1024.1 1024.1 0.8
24/03:00am 16.7 12.6 10.1 65 3.5 S 22 30 12 16 1024.2 1024.2 0.8
24/02:30am 16.7 12.0 9.4 62 3.8 S 24 30 13 16 1024.3 1024.3 0.8
24/02:00am 16.9 11.7 10.1 64 3.6 S 28 35 15 19 1024.3 1024.3 0.8
24/01:30am 16.9 11.7 10.1 64 3.6 S 28 33 15 18 1024.2 1024.2 0.8
24/01:00am 16.9 11.7 10.1 64 3.6 S 28 33 15 18 1024.5 1024.5 0.8
24/12:30am 17.0 11.7 9.7 62 3.8 S 28 39 15 21 1024.6 1024.6 0.8
24/12:00am 17.2 12.8 10.3 64 3.6 S 24 28 13 15 1024.6 1024.6 0.8
 
Date/Time
CDT
Temp
°C
App
Temp
°C
Dew
Point
°C
Rel
Hum
%
Delta-T
°C
Wind Press
QNH
hPa
Press
MSL
hPa
Rain since
9am
mm
Dir  Spd
km/h
Gust
km/h
Spd
kts
Gust
kts
23/11:30pm 17.3 12.6 10.7 65 3.5 S 26 30 14 16 1024.4 1024.4 0.8
23/11:00pm 17.6 12.6 10.9 65 3.6 S 28 32 15 17 1024.4 1024.4 0.6
23/10:30pm 17.8 13.7 11.6 67 3.4 S 24 33 13 18 1024.4 1024.4 0.6
23/10:00pm 17.5 13.0 11.5 68 3.3 S 26 32 14 17 1024.2 1024.2 0.6
23/09:30pm 17.8 13.1 12.0 69 3.2 S 28 32 15 17 1023.9 1023.9 0.6
23/09:00pm 18.1 13.5 12.3 69 3.2 S 28 35 15 19 1023.5 1023.5 0.6
23/08:30pm 18.1 13.9 12.5 70 3.1 S 26 30 14 16 1023.0 1023.0 0.6
23/08:00pm 17.9 13.9 11.9 68 3.3 S 24 30 13 16 1022.8 1022.8 0.6
23/07:30pm 18.3 14.3 11.8 66 3.6 S 24 30 13 16 1022.3 1022.3 0.6
23/07:00pm 18.7 14.7 11.8 64 3.8 SSW 24 30 13 16 1022.0 1022.0 0.6
23/06:30pm 19.4 14.8 12.4 64 3.9 S 28 33 15 18 1021.6 1021.6 0.6
23/06:00pm 20.1 15.1 12.3 61 4.4 SSW 30 35 16 19 1021.5 1021.5 0.6
23/05:30pm 20.6 16.2 11.8 57 4.9 SSW 26 33 14 18 1021.4 1021.4 0.6
23/05:00pm 21.4 17.4 11.7 54 5.4 SSW 24 28 13 15 1021.1 1021.1 0.6
23/04:30pm 20.7 16.9 11.1 54 5.3 SSW 22 28 12 15 1021.2 1021.2 0.6
23/04:00pm 20.9 17.2 11.5 55 5.2 S 22 26 12 14 1021.1 1021.1 0.6
23/03:30pm 20.6 17.1 12.3 59 4.6 S 22 28 12 15 1021.1 1021.1 0.6
23/03:00pm 21.6 18.6 13.8 61 4.5 SSW 22 28 12 15 1021.1 1021.1 0.6
23/02:30pm 20.8 17.5 12.8 60 4.5 S 22 28 12 15 1021.3 1021.3 0.6
23/02:00pm 21.0 18.3 12.9 60 4.6 S 19 24 10 13 1021.1 1021.1 0.6
23/01:30pm 21.1 18.9 14.5 66 3.8 S 19 26 10 14 1021.1 1021.1 0.6
23/01:00pm 20.9 18.8 13.6 63 4.2 SSW 17 22 9 12 1021.2 1021.2 0.6
23/12:30pm 20.4 18.1 12.9 62 4.2 S 17 22 9 12 1021.1 1021.1 0.6
23/12:00pm 20.3 17.4 14.0 67 3.6 SSW 22 26 12 14 1021.3 1021.3 0.6
23/11:30am 19.2 15.8 13.8 71 3.1 SSW 24 28 13 15 1021.3 1021.3 0.6
23/11:00am 18.6 16.5 13.5 72 2.9 SW 17 20 9 11 1021.3 1021.3 0.6
23/10:30am 18.3 16.7 13.8 75 2.6 SSW 15 19 8 10 1021.0 1021.0 0.6
23/10:00am 16.5 14.4 13.6 83 1.6 SW 17 26 9 14 1020.7 1020.7 0.6
23/09:30am 16.5 14.6 14.3 87 1.3 W 17 20 9 11 1020.4 1020.4 0.4
23/09:00am 16.5 15.0 14.2 86 1.3 WNW 15 19 8 10 1019.8 1019.8 0.0
23/08:30am 16.4 13.8 13.9 85 1.4 WSW 20 30 11 16 1019.3 1019.3 0.0
23/08:00am 16.5 13.8 13.6 83 1.6 WSW 20 30 11 16 1018.9 1018.9 0.0
23/07:30am 16.4 14.3 13.5 83 1.6 WSW 17 22 9 12 1018.2 1018.2 0.0
23/07:00am 16.8 13.5 12.9 78 2.2 W 22 32 12 17 1017.7 1017.7 0.0
23/06:30am 17.3 13.6 12.8 75 2.5 WSW 24 30 13 16 1017.3 1017.3 0.0
23/06:00am 17.0 13.7 12.7 76 2.4 WSW 22 32 12 17 1016.8 1016.8 0.0
23/05:30am 17.2 13.5 12.7 75 2.5 WSW 24 35 13 19 1016.5 1016.5 0.0
23/05:00am 17.4 12.9 12.7 74 2.6 WSW 28 39 15 21 1016.1 1016.1 0.0
23/04:30am 17.6 13.8 12.5 72 2.8 WSW 24 35 13 19 1016.3 1016.3 0.0
23/04:00am 17.4 14.0 12.5 73 2.7 WSW 22 30 12 16 1016.2 1016.2 0.0
23/03:30am 17.6 15.2 12.7 73 2.7 WSW 17 24 9 13 1016.1 1016.1 0.0
23/03:00am 17.8 15.0 12.7 72 2.8 WSW 19 28 10 15 1016.0 1016.0 0.0
23/02:30am 17.7 16.0 12.4 71 2.9 WSW 13 19 7 10 1015.9 1015.9 0.0
23/02:00am 18.1 14.7 12.5 70 3.1 WSW 22 30 12 16 1015.7 1015.7 0.0
23/01:30am 18.5 13.6 12.7 69 3.2 WSW 30 43 16 23 1015.3 1015.3 0.0
23/01:00am 18.6 13.5 13.0 70 3.2 WSW 32 43 17 23 1015.1 1015.1 0.0
23/12:30am 19.0 13.9 13.2 69 3.3 W 32 44 17 24 1015.0 1014.9 0.0
23/12:00am 18.9 13.8 13.1 69 3.3 W 32 41 17 22 1014.7 1014.6 0.0
 
Date/Time
CDT
Temp
°C
App
Temp
°C
Dew
Point
°C
Rel
Hum
%
Delta-T
°C
Wind Press
QNH
hPa
Press
MSL
hPa
Rain since
9am
mm
Dir  Spd
km/h
Gust
km/h
Spd
kts
Gust
kts
22/11:30pm 19.1 14.1 13.3 69 3.3 W 32 48 17 26 1014.7 1014.6 0.0
22/11:00pm 19.1 15.0 12.8 67 3.5 W 26 35 14 19 1014.9 1014.8 0.0
22/10:30pm 19.6 13.5 13.1 66 3.7 W 37 50 20 27 1014.3 1014.2 0.0
22/10:00pm 19.8 14.9 12.6 63 4.0 W 30 41 16 22 1014.3 1014.2 0.0
22/09:30pm 20.0 14.9 12.0 60 4.5 W 30 43 16 23 1013.9 1013.8 0.0
22/09:00pm 20.3 15.9 12.8 62 4.2 W 28 41 15 22 1013.8 1013.7 0.0
22/08:30pm 20.6 15.6 12.1 58 4.8 W 30 41 16 22 1013.1 1013.0 0.0
22/08:00pm 21.2 15.5 11.2 53 5.5 WNW 32 43 17 23 1012.8 1012.7 0.0
22/07:37pm 21.7 16.1 11.4 52 5.7 W 32 52 17 28 1012.4 1012.3 0.0
22/07:30pm 22.0 16.1 10.5 48 6.3 WNW 32 46 17 25 1012.3 1012.2 0.0
22/07:02pm 22.7 17.2 10.5 46 6.7 WNW 30 48 16 26 1011.8 1011.7 0.0
22/07:00pm 22.8 17.0 10.9 47 6.6 WNW 32 48 17 26 1011.9 1011.8 0.0
22/06:30pm 23.2 17.0 9.9 43 7.3 WNW 33 43 18 23 1011.4 1011.3 0.0
22/06:02pm 23.7 17.1 10.0 42 7.5 W 35 54 19 29 1011.3 1011.2 0.0
22/06:00pm 23.7 16.7 10.0 42 7.5 W 37 54 20 29 1011.3 1011.2 0.0
22/05:51pm 24.1 17.5 8.5 37 8.3 WNW 33 52 18 28 1011.2 1011.1 0.0
22/05:30pm 24.1 18.8 10.0 41 7.7 W 28 41 15 22 1011.2 1011.1 0.0

Latest Capital City Observations: Canberra | Sydney | Melbourne | Brisbane | Adelaide | Perth | Hobart | Darwin

Other Formats:

Comma delimited format used in spreadsheet applications
http://www.bom.gov.au/fwo/IDS60901/IDS60901.94677.axf

JavaScript Object Notation format (JSON) in row-major order
http://www.bom.gov.au/fwo/IDS60901/IDS60901.94677.json